Terminal Aerodrome Forecast
Issued by NWS

Home | Current Version | Previous Version | Text Only | Print | Product List | Glossary On
Versions: 1 2 3 4 5 6 7 8 9 10 11 12 13 14 15 16
240
FTUS42 KJAX 262334
TAFCRG
TAF
KCRG 262334Z 2700/2724 15010KT P6SM FEW060
     FM270300 17004KT P6SM SCT250
     FM271200 18008KT P6SM FEW030 FEW250
     FM271400 19012G20KT P6SM SCT050=

USA.gov is the U.S. government's official web portal to all federal, state and local government web resources and services.